Time;durP1;ratioP1;P1;durP2;ratioP2;P2;SDS_P1;SDS_P2;PMS_P1;PMS_P2;Temp;Humidity;BMP_temperature;BMP_pressure;BME280_temperature;BME280_humidity;BME280_pressure;Samples;Min_cycle;Max_cycle;Signal;HPM_P1;HPM_P2
2023/06/21 00:01:40;;;;;;;9.43;8.27;;;19.40;99.90;;;;;;5037004;28;20200;-60
2023/06/21 00:04:08;;;;;;;13.60;8.13;;;19.50;99.90;;;;;;5021686;28;20204;-61
2023/06/21 00:06:37;;;;;;;11.67;7.93;;;19.40;99.90;;;;;;5029296;28;20636;-60
2023/06/21 00:09:05;;;;;;;7.63;6.93;;;19.60;99.90;;;;;;5040022;28;20200;-61
2023/06/21 00:11:32;;;;;;;9.97;7.97;;;19.60;99.90;;;;;;5023500;28;20196;-60
2023/06/21 00:14:01;;;;;;;11.20;8.73;;;19.50;99.90;;;;;;5018577;28;21698;-61
2023/06/21 00:16:28;;;;;;;9.03;7.80;;;19.50;99.90;;;;;;5039343;28;21056;-61
2023/06/21 00:18:55;;;;;;;8.17;7.20;;;19.40;99.90;;;;;;5042965;28;20278;-61
2023/06/21 00:21:22;;;;;;;11.30;8.27;;;19.50;99.90;;;;;;5042289;28;20230;-61
2023/06/21 00:23:49;;;;;;;8.67;7.77;;;19.50;99.90;;;;;;5042291;28;22101;-60
2023/06/21 00:26:15;;;;;;;9.90;8.90;;;19.50;99.90;;;;;;5041538;28;20281;-61
2023/06/21 00:28:42;;;;;;;10.13;8.53;;;19.30;99.90;;;;;;5042739;28;20211;-61
2023/06/21 00:31:10;;;;;;;9.83;8.87;;;19.40;99.90;;;;;;5040147;28;20258;-60
2023/06/21 00:33:38;;;;;;;9.57;8.53;;;19.50;99.90;;;;;;5041431;28;20272;-60
2023/06/21 00:36:05;;;;;;;8.67;7.80;;;19.30;99.90;;;;;;5028645;28;20200;-60
2023/06/21 00:38:35;;;;;;;9.80;8.50;;;19.40;99.90;;;;;;5042897;28;20209;-60
2023/06/21 00:41:04;;;;;;;9.33;8.43;;;19.40;99.90;;;;;;5040604;28;20200;-60
2023/06/21 00:43:31;;;;;;;9.17;8.23;;;19.50;99.90;;;;;;5040066;28;20196;-60
2023/06/21 00:45:59;;;;;;;11.97;8.93;;;19.70;99.90;;;;;;5024996;28;20203;-60
2023/06/21 00:48:28;;;;;;;9.43;8.47;;;19.60;99.90;;;;;;5042390;28;20200;-60
2023/06/21 00:50:56;;;;;;;9.43;8.37;;;19.50;99.90;;;;;;5039302;28;20192;-60
2023/06/21 00:53:26;;;;;;;10.67;9.60;;;19.50;99.90;;;;;;5038274;28;20750;-60
2023/06/21 00:55:54;;;;;;;10.90;9.03;;;19.50;99.90;;;;;;5042545;28;20223;-60
2023/06/21 00:58:21;;;;;;;11.20;9.53;;;19.30;99.90;;;;;;5041807;28;20208;-60
2023/06/21 01:00:52;;;;;;;11.70;9.77;;;19.30;99.90;;;;;;5042083;28;20287;-61
2023/06/21 01:03:20;;;;;;;12.90;8.60;;;19.40;99.90;;;;;;5042921;28;20204;-60
2023/06/21 01:06:09;;;;;;;10.87;9.73;;;19.40;99.90;;;;;;5043944;28;20211;-60
2023/06/21 01:08:55;;;;;;;14.00;10.77;;;19.20;99.90;;;;;;5038726;28;20197;-60
2023/06/21 01:11:53;;;;;;;12.63;10.00;;;19.20;99.90;;;;;;5037513;28;20226;-60
2023/06/21 01:14:44;;;;;;;11.90;10.07;;;19.10;99.90;;;;;;5028998;28;20635;-60
2023/06/21 01:17:12;;;;;;;14.63;10.93;;;19.30;99.90;;;;;;5043021;28;20331;-60
2023/06/21 01:19:55;;;;;;;12.97;11.57;;;19.20;99.90;;;;;;5043025;28;20227;-60
2023/06/21 01:22:22;;;;;;;15.47;11.47;;;19.10;99.90;;;;;;5042702;28;20254;-59
2023/06/21 01:25:18;;;;;;;13.13;11.53;;;19.20;99.90;;;;;;5043804;28;20274;-60
2023/06/21 01:28:23;;;;;;;13.50;12.07;;;19.30;99.90;;;;;;5039992;28;20679;-60
2023/06/21 01:30:51;;;;;;;13.40;11.87;;;19.40;99.90;;;;;;5039824;28;20244;-60
2023/06/21 01:33:19;;;;;;;17.07;11.93;;;19.40;99.90;;;;;;5042384;28;20207;-60
2023/06/21 01:35:46;;;;;;;15.20;11.97;;;19.40;99.90;;;;;;5041846;28;20200;-60
2023/06/21 01:38:13;;;;;;;14.40;12.57;;;19.40;99.90;;;;;;5040037;28;20549;-60
2023/06/21 01:40:40;;;;;;;13.20;11.90;;;19.40;99.90;;;;;;5040167;28;20200;-60
2023/06/21 01:43:07;;;;;;;14.13;12.63;;;19.50;99.90;;;;;;5039539;28;20208;-60
2023/06/21 01:45:33;;;;;;;14.30;12.63;;;19.40;99.90;;;;;;5024781;28;20203;-62
2023/06/21 01:48:02;;;;;;;14.10;12.57;;;19.20;99.90;;;;;;5034159;28;20234;-61
2023/06/21 01:50:34;;;;;;;16.97;13.37;;;19.20;99.90;;;;;;5018805;28;20591;-61
2023/06/21 01:53:02;;;;;;;16.07;13.73;;;19.10;99.90;;;;;;5041634;28;20207;-62
2023/06/21 01:55:30;;;;;;;16.20;13.53;;;19.10;99.90;;;;;;5041849;28;20204;-61
2023/06/21 01:57:57;;;;;;;16.60;14.50;;;19.10;99.90;;;;;;5041559;28;20698;-61
2023/06/21 02:00:26;;;;;;;16.77;14.00;;;19.10;99.90;;;;;;5041333;28;20207;-61
2023/06/21 02:03:03;;;;;;;15.80;13.90;;;19.10;99.90;;;;;;5041744;28;20730;-61
2023/06/21 02:05:32;;;;;;;17.17;14.07;;;19.20;99.90;;;;;;5039978;28;20229;-61
2023/06/21 02:08:00;;;;;;;18.30;14.13;;;19.30;99.90;;;;;;5039278;28;20752;-61
2023/06/21 02:10:27;;;;;;;17.63;14.93;;;19.30;99.90;;;;;;5023724;28;20687;-61
2023/06/21 02:12:54;;;;;;;15.43;12.80;;;19.30;99.90;;;;;;5039217;28;20252;-61
2023/06/21 02:15:22;;;;;;;16.27;14.20;;;19.30;99.90;;;;;;5036818;28;20208;-61
2023/06/21 02:17:50;;;;;;;18.33;14.77;;;19.30;99.90;;;;;;5041700;28;21677;-61
2023/06/21 02:20:19;;;;;;;16.13;14.40;;;19.40;99.90;;;;;;5042159;28;20300;-61
2023/06/21 02:22:47;;;;;;;17.13;14.73;;;19.40;99.90;;;;;;5039964;28;20204;-62
2023/06/21 02:25:16;;;;;;;16.17;13.90;;;19.40;99.90;;;;;;5039963;28;20232;-61
2023/06/21 02:27:43;;;;;;;16.10;14.00;;;19.40;99.90;;;;;;5040005;28;20220;-61
2023/06/21 02:30:10;;;;;;;17.10;14.00;;;19.40;99.90;;;;;;5036822;28;20204;-61
2023/06/21 02:32:37;;;;;;;15.50;13.87;;;19.30;99.90;;;;;;5040087;28;20207;-61
2023/06/21 02:35:05;;;;;;;17.53;15.50;;;19.20;99.90;;;;;;5040685;28;20212;-61
2023/06/21 02:37:32;;;;;;;15.17;13.60;;;19.20;99.90;;;;;;5038853;28;20204;-61
2023/06/21 02:39:59;;;;;;;15.93;13.67;;;19.20;99.90;;;;;;5027659;28;20229;-62
2023/06/21 02:42:27;;;;;;;15.30;13.43;;;19.40;99.90;;;;;;5037990;28;20202;-61
2023/06/21 02:44:54;;;;;;;18.80;13.53;;;19.40;99.90;;;;;;5038069;28;20643;-61
2023/06/21 02:47:21;;;;;;;15.83;13.57;;;19.50;99.90;;;;;;5039770;28;20226;-61
2023/06/21 02:49:48;;;;;;;14.93;13.33;;;19.40;99.90;;;;;;5039798;28;20268;-60
2023/06/21 02:52:15;;;;;;;15.03;13.27;;;19.30;99.90;;;;;;5041607;28;20245;-61
2023/06/21 02:54:42;;;;;;;16.73;14.33;;;19.20;99.90;;;;;;5038271;28;20250;-60
2023/06/21 02:57:08;;;;;;;16.53;13.73;;;19.20;99.90;;;;;;5039823;28;20255;-60
2023/06/21 02:59:36;;;;;;;16.33;13.90;;;19.20;99.90;;;;;;5037804;28;20597;-61
2023/06/21 03:02:03;;;;;;;17.33;14.60;;;19.20;99.90;;;;;;5036432;28;20219;-61
2023/06/21 03:04:30;;;;;;;19.73;14.03;;;19.10;99.90;;;;;;5039236;28;21071;-60
2023/06/21 03:07:01;;;;;;;15.87;14.17;;;19.20;99.90;;;;;;5039396;28;20234;-60
2023/06/21 03:09:28;;;;;;;17.33;14.10;;;19.20;99.90;;;;;;5040747;28;20230;-61
2023/06/21 03:11:55;;;;;;;17.27;12.90;;;19.30;99.90;;;;;;5037717;28;20204;-61
2023/06/21 03:14:22;;;;;;;18.37;14.93;;;19.20;99.90;;;;;;5037326;28;20528;-60
2023/06/21 03:16:49;;;;;;;16.33;14.33;;;19.10;99.90;;;;;;5025142;28;20201;-61
2023/06/21 03:19:17;;;;;;;15.27;13.57;;;19.10;99.90;;;;;;5037871;28;20224;-61
2023/06/21 03:21:45;;;;;;;15.43;13.83;;;19.30;99.90;;;;;;5040692;28;20211;-61
2023/06/21 03:24:12;;;;;;;17.00;14.30;;;19.30;99.90;;;;;;5038271;28;20228;-61
2023/06/21 03:26:39;;;;;;;16.73;14.33;;;19.40;99.90;;;;;;5038117;28;20329;-62
2023/06/21 03:29:06;;;;;;;17.07;14.40;;;19.30;99.90;;;;;;5039224;28;20200;-61
2023/06/21 03:31:34;;;;;;;16.77;14.57;;;19.30;99.90;;;;;;5026322;28;20233;-61
2023/06/21 03:34:01;;;;;;;16.30;14.37;;;19.40;99.90;;;;;;5038746;28;20208;-61
2023/06/21 03:36:28;;;;;;;16.23;14.20;;;19.40;99.90;;;;;;5040631;28;20200;-59
2023/06/21 03:38:55;;;;;;;17.63;14.53;;;19.30;99.90;;;;;;5043639;28;20207;-62
2023/06/21 03:41:22;;;;;;;17.40;15.07;;;19.30;99.90;;;;;;5040085;28;20203;-59
2023/06/21 03:43:49;;;;;;;17.87;15.43;;;19.30;99.90;;;;;;5040408;28;20594;-62
2023/06/21 03:46:18;;;;;;;19.07;14.93;;;19.30;99.90;;;;;;5025674;28;20204;-59
2023/06/21 03:48:44;;;;;;;20.10;16.07;;;19.10;99.90;;;;;;5043975;28;20221;-59
2023/06/21 03:51:11;;;;;;;18.27;16.10;;;19.20;99.90;;;;;;5023699;28;20227;-62
2023/06/21 03:53:38;;;;;;;19.17;16.03;;;19.20;99.90;;;;;;5042941;28;20231;-61
2023/06/21 03:56:05;;;;;;;20.47;15.87;;;19.30;99.90;;;;;;5045728;28;20208;-59
2023/06/21 03:58:32;;;;;;;22.20;17.43;;;19.40;99.90;;;;;;5039379;28;20262;-59
2023/06/21 04:00:59;;;;;;;19.07;16.33;;;19.40;99.90;;;;;;5041506;28;20219;-60
2023/06/21 04:03:26;;;;;;;20.20;16.70;;;19.50;99.90;;;;;;5023383;28;20207;-61
2023/06/21 04:05:53;;;;;;;18.20;15.87;;;19.30;99.90;;;;;;5038784;28;20295;-62
2023/06/21 04:08:20;;;;;;;19.67;15.87;;;19.20;99.90;;;;;;5043076;28;20220;-62
2023/06/21 04:10:47;;;;;;;18.83;16.03;;;19.20;99.90;;;;;;5041542;28;20290;-61
2023/06/21 04:13:14;;;;;;;20.63;16.80;;;19.20;99.90;;;;;;5039200;28;20625;-61
2023/06/21 04:15:41;;;;;;;18.47;16.47;;;19.30;99.90;;;;;;5040073;28;20663;-61
2023/06/21 04:18:08;;;;;;;22.57;16.53;;;19.30;99.90;;;;;;5023699;28;20555;-61
2023/06/21 04:20:35;;;;;;;19.87;16.93;;;19.30;99.90;;;;;;5037836;28;20582;-61
2023/06/21 04:23:02;;;;;;;19.60;16.87;;;19.30;99.90;;;;;;5036590;28;20301;-61
2023/06/21 04:25:29;;;;;;;23.67;17.77;;;19.10;99.90;;;;;;5041953;28;20207;-62
2023/06/21 04:27:55;;;;;;;20.20;17.13;;;19.00;99.90;;;;;;5040219;28;20242;-61
2023/06/21 04:30:22;;;;;;;22.60;17.70;;;19.00;99.90;;;;;;5039307;28;20261;-60
2023/06/21 04:32:49;;;;;;;23.80;17.60;;;19.20;99.90;;;;;;5040000;28;20216;-60
2023/06/21 04:35:17;;;;;;;23.13;18.33;;;19.40;99.90;;;;;;5037652;28;20196;-60
2023/06/21 04:37:46;;;;;;;26.13;20.87;;;19.50;99.90;;;;;;5003743;28;20298;-60
2023/06/21 04:40:16;;;;;;;25.47;20.27;;;19.50;99.90;;;;;;5034462;28;21105;-60
2023/06/21 04:42:46;;;;;;;27.33;21.87;;;19.30;99.90;;;;;;5035190;28;20208;-60
2023/06/21 04:45:14;;;;;;;24.20;20.53;;;19.40;99.90;;;;;;5034147;28;20196;-60
2023/06/21 04:47:48;;;;;;;25.83;21.03;;;19.40;99.90;;;;;;5027692;28;20246;-60
2023/06/21 04:50:16;;;;;;;26.40;20.57;;;19.40;99.90;;;;;;5037914;28;20203;-60
2023/06/21 04:52:48;;;;;;;26.00;21.10;;;19.50;99.90;;;;;;5042991;28;20200;-60
2023/06/21 04:55:20;;;;;;;27.07;20.77;;;19.50;99.90;;;;;;5019928;28;20558;-60
2023/06/21 04:57:48;;;;;;;25.80;20.93;;;19.40;99.90;;;;;;5040839;28;22219;-60
2023/06/21 05:00:16;;;;;;;25.53;21.67;;;19.40;99.90;;;;;;5038153;28;20205;-60
2023/06/21 05:02:43;;;;;;;26.03;21.17;;;19.50;99.90;;;;;;5042374;28;20670;-60
2023/06/21 05:05:10;;;;;;;25.57;20.20;;;19.60;99.90;;;;;;5040368;28;20541;-60
2023/06/21 05:07:38;;;;;;;24.77;20.67;;;19.70;99.90;;;;;;5040992;28;20223;-60
2023/06/21 05:10:10;;;;;;;23.73;20.03;;;19.70;99.90;;;;;;5030761;28;20207;-62
2023/06/21 05:12:37;;;;;;;27.63;20.60;;;19.70;99.90;;;;;;5038433;28;20196;-59
2023/06/21 05:15:05;;;;;;;28.37;21.87;;;19.70;99.90;;;;;;5034721;28;20257;-60
2023/06/21 05:17:33;;;;;;;25.97;20.83;;;19.70;99.90;;;;;;5036882;28;20211;-60
2023/06/21 05:20:03;;;;;;;27.63;20.97;;;19.60;99.90;;;;;;5034067;28;20727;-61
2023/06/21 05:22:31;;;;;;;28.40;21.00;;;19.70;99.90;;;;;;5029244;28;20294;-60
2023/06/21 05:25:00;;;;;;;25.57;20.40;;;19.50;99.90;;;;;;5035604;28;20244;-60
2023/06/21 05:27:27;;;;;;;27.10;22.10;;;19.50;99.90;;;;;;5031919;28;21473;-60
2023/06/21 05:29:54;;;;;;;28.23;21.50;;;19.70;99.90;;;;;;5033392;28;20329;-60
2023/06/21 05:32:21;;;;;;;26.17;20.83;;;19.90;99.90;;;;;;5032854;28;20203;-60
2023/06/21 05:34:49;;;;;;;25.10;20.47;;;19.90;99.90;;;;;;5039471;28;20258;-60
2023/06/21 05:37:16;;;;;;;25.60;20.73;;;20.00;99.90;;;;;;5023826;28;20281;-60
2023/06/21 05:39:44;;;;;;;24.33;19.60;;;20.00;99.90;;;;;;5040078;28;20203;-60
2023/06/21 05:42:11;;;;;;;26.90;19.67;;;20.00;99.90;;;;;;5036177;28;20217;-60
2023/06/21 05:44:39;;;;;;;23.87;19.57;;;20.20;99.90;;;;;;4658995;28;9999990;-60
2023/06/21 05:47:06;;;;;;;24.33;18.60;;;20.20;99.90;;;;;;5032828;28;20203;-60
2023/06/21 05:49:33;;;;;;;24.07;19.07;;;20.20;99.90;;;;;;5035448;28;20235;-60
2023/06/21 05:52:00;;;;;;;19.77;16.50;;;20.20;99.90;;;;;;5041022;28;20743;-60
2023/06/21 05:54:26;;;;;;;20.87;16.43;;;20.20;99.90;;;;;;5040882;28;20195;-61
2023/06/21 05:56:55;;;;;;;18.03;14.97;;;20.00;99.90;;;;;;5037705;28;20216;-60
2023/06/21 05:59:22;;;;;;;21.50;14.47;;;20.00;99.90;;;;;;5034952;28;20219;-60
2023/06/21 06:01:49;;;;;;;15.97;13.33;;;20.00;99.90;;;;;;5034395;28;20200;-60
2023/06/21 06:04:16;;;;;;;14.67;12.50;;;19.80;99.90;;;;;;5039324;28;20261;-60
2023/06/21 06:06:43;;;;;;;16.33;11.97;;;19.80;99.90;;;;;;5040273;28;20563;-60
2023/06/21 06:09:11;;;;;;;15.33;13.60;;;20.00;99.90;;;;;;5037791;28;20216;-60
2023/06/21 06:11:38;;;;;;;17.43;13.40;;;20.10;99.90;;;;;;5028080;28;20197;-60
2023/06/21 06:14:04;;;;;;;18.40;13.87;;;20.20;99.90;;;;;;5017811;28;20771;-60
2023/06/21 06:16:31;;;;;;;17.00;12.77;;;20.20;99.90;;;;;;5035499;28;20680;-61
2023/06/21 06:18:58;;;;;;;16.43;13.13;;;20.40;99.90;;;;;;5038174;28;20237;-61
2023/06/21 06:21:25;;;;;;;16.27;13.07;;;20.30;99.90;;;;;;5026668;28;20648;-60
2023/06/21 06:23:53;;;;;;;15.33;11.57;;;20.30;99.90;;;;;;5022162;28;20282;-63
2023/06/21 06:26:26;;;;;;;14.57;11.50;;;20.50;99.90;;;;;;5040878;28;20201;-61
2023/06/21 06:28:54;;;;;;;16.17;12.60;;;20.70;99.90;;;;;;5035662;28;20252;-60
2023/06/21 06:31:26;;;;;;;16.43;12.00;;;20.50;99.90;;;;;;5036247;28;20200;-60
2023/06/21 06:33:53;;;;;;;13.57;10.57;;;20.50;99.90;;;;;;5035926;28;20290;-60
2023/06/21 06:36:20;;;;;;;14.67;11.57;;;20.70;99.90;;;;;;5037584;28;20200;-60
2023/06/21 06:38:49;;;;;;;14.93;11.67;;;21.00;99.90;;;;;;5032205;28;20241;-60
2023/06/21 06:41:17;;;;;;;11.43;10.10;;;20.80;99.90;;;;;;5037104;28;20211;-61
2023/06/21 06:43:44;;;;;;;15.20;11.07;;;21.20;99.90;;;;;;5024949;28;20566;-60
2023/06/21 06:46:11;;;;;;;13.57;9.83;;;21.30;99.90;;;;;;5027952;28;20228;-60
2023/06/21 06:48:38;;;;;;;13.10;9.87;;;21.50;99.90;;;;;;5013390;28;21046;-61
2023/06/21 06:51:05;;;;;;;13.50;10.13;;;21.50;99.90;;;;;;5041153;28;20197;-61
2023/06/21 06:53:32;;;;;;;13.90;9.73;;;21.30;99.90;;;;;;5036182;28;20202;-60
2023/06/21 06:55:59;;;;;;;12.13;9.83;;;21.50;99.90;;;;;;5027784;28;20281;-60
2023/06/21 06:58:27;;;;;;;13.30;9.30;;;21.40;99.90;;;;;;5036967;28;20687;-60
2023/06/21 07:00:55;;;;;;;13.37;10.50;;;21.50;99.90;;;;;;5035254;28;20208;-61
2023/06/21 07:03:22;;;;;;;12.73;9.70;;;21.40;99.90;;;;;;5021427;28;20290;-60
2023/06/21 07:05:52;;;;;;;11.77;9.90;;;21.40;99.90;;;;;;5036677;28;20555;-60
2023/06/21 07:08:19;;;;;;;12.37;10.30;;;21.40;99.90;;;;;;5017550;28;20235;-60
2023/06/21 07:10:46;;;;;;;12.73;10.77;;;21.40;99.90;;;;;;5029485;28;20197;-60
2023/06/21 07:13:13;;;;;;;12.53;10.27;;;21.50;99.90;;;;;;5038721;28;20620;-61
2023/06/21 07:15:40;;;;;;;13.07;9.43;;;21.70;99.90;;;;;;5028363;28;20207;-61
2023/06/21 07:18:07;;;;;;;12.97;10.13;;;21.50;99.90;;;;;;5032176;28;20231;-61
2023/06/21 07:20:34;;;;;;;10.33;8.90;;;21.50;99.90;;;;;;5031560;28;20747;-60
2023/06/21 07:23:02;;;;;;;9.47;8.17;;;21.50;99.90;;;;;;5033365;28;20619;-61
2023/06/21 07:25:29;;;;;;;8.30;7.40;;;21.80;99.90;;;;;;5004968;28;20611;-60
2023/06/21 07:27:56;;;;;;;9.40;7.60;;;22.00;99.90;;;;;;5012044;28;20196;-60
2023/06/21 07:30:23;;;;;;;9.50;7.70;;;22.00;99.90;;;;;;5036489;28;20268;-60
2023/06/21 07:32:51;;;;;;;9.20;7.23;;;22.40;99.90;;;;;;5038204;28;20231;-61
2023/06/21 07:35:18;;;;;;;9.73;8.63;;;22.50;99.90;;;;;;5037247;28;20289;-60
2023/06/21 07:37:46;;;;;;;10.23;7.93;;;22.30;99.90;;;;;;5008184;28;20219;-66
2023/06/21 07:40:13;;;;;;;7.93;5.87;;;23.40;99.90;;;;;;5034530;28;20243;-60
2023/06/21 07:42:41;;;;;;;6.93;5.30;;;23.70;99.90;;;;;;5031686;28;20506;-60
2023/06/21 07:45:09;;;;;;;7.20;5.20;;;23.70;99.90;;;;;;5033466;28;20200;-60
2023/06/21 07:47:36;;;;;;;5.50;4.80;;;24.00;99.90;;;;;;5034538;28;20298;-60
2023/06/21 07:50:05;;;;;;;6.73;6.03;;;24.80;99.90;;;;;;5026395;28;22043;-59
2023/06/21 07:52:48;;;;;;;5.57;3.70;;;24.90;99.90;;;;;;5033213;28;20199;-59
2023/06/21 07:55:15;;;;;;;5.27;4.10;;;25.50;99.90;;;;;;5026948;28;20223;-61
2023/06/21 07:57:43;;;;;;;6.23;4.73;;;25.80;99.90;;;;;;5019966;28;20212;-61
2023/06/21 08:00:13;;;;;;;4.37;3.97;;;25.20;99.90;;;;;;5037721;28;20211;-62
2023/06/21 08:02:44;;;;;;;6.70;5.70;;;25.80;99.90;;;;;;5032717;28;20693;-61
2023/06/21 08:05:11;;;;;;;4.70;4.07;;;26.10;99.90;;;;;;5036507;28;20204;-61
2023/06/21 08:07:38;;;;;;;5.20;4.70;;;27.00;99.90;;;;;;5029211;28;20684;-58
2023/06/21 08:10:05;;;;;;;5.77;4.77;;;25.60;99.90;;;;;;5034531;28;20650;-61
2023/06/21 08:12:32;;;;;;;5.33;4.47;;;26.00;99.90;;;;;;5019774;28;20201;-61
2023/06/21 08:15:03;;;;;;;4.63;4.23;;;25.50;99.90;;;;;;5020433;28;20197;-61
2023/06/21 08:17:30;;;;;;;6.07;4.67;;;25.70;99.90;;;;;;5034730;28;20236;-61
2023/06/21 08:19:58;;;;;;;6.27;3.60;;;25.70;99.90;;;;;;5018831;28;20237;-61
2023/06/21 08:22:25;;;;;;;5.33;3.67;;;25.30;99.90;;;;;;5040178;28;20239;-61
2023/06/21 08:24:54;;;;;;;4.63;3.60;;;25.80;99.90;;;;;;5029991;28;20334;-61
2023/06/21 08:27:21;;;;;;;4.17;3.40;;;25.70;99.90;;;;;;5035826;28;20207;-60
2023/06/21 08:29:48;;;;;;;5.80;4.07;;;26.20;99.90;;;;;;5035291;28;20292;-60
2023/06/21 08:32:15;;;;;;;4.07;3.67;;;26.50;99.90;;;;;;5020834;28;20205;-59
2023/06/21 08:34:42;;;;;;;5.20;4.40;;;26.40;99.90;;;;;;5026570;28;20211;-62
2023/06/21 08:37:09;;;;;;;4.23;3.83;;;26.40;99.90;;;;;;5023227;28;20222;-61
2023/06/21 08:39:36;;;;;;;5.50;3.63;;;26.90;99.90;;;;;;5028536;28;20668;-61
2023/06/21 08:42:03;;;;;;;5.50;4.53;;;27.10;99.90;;;;;;5036057;28;20208;-61
2023/06/21 08:44:30;;;;;;;5.30;3.92;;;26.10;99.90;;;;;;5033394;28;20215;-63
2023/06/21 08:47:00;;;;;;;4.53;3.63;;;26.40;99.90;;;;;;5035145;28;20210;-61
2023/06/21 08:49:29;;;;;;;5.70;4.00;;;27.10;99.90;;;;;;5040724;28;21089;-65
2023/06/21 08:51:59;;;;;;;4.82;3.50;;;26.00;99.90;;;;;;5041326;28;20196;-60
2023/06/21 08:54:29;;;;;;;3.08;2.80;;;26.30;99.90;;;;;;5036585;28;20204;-62
2023/06/21 08:57:03;;;;;;;4.22;2.55;;;26.30;99.90;;;;;;5038173;28;20295;-60
2023/06/21 09:00:00;;;;;;;3.83;3.17;;;26.60;99.90;;;;;;5032030;28;20781;-61
2023/06/21 09:02:29;;;;;;;2.92;2.63;;;27.70;99.90;;;;;;5013810;28;20278;-60
2023/06/21 09:05:02;;;;;;;3.83;3.45;;;28.00;99.90;;;;;;5039640;28;20682;-61
2023/06/21 09:07:30;;;;;;;6.38;3.65;;;28.20;99.90;;;;;;5034540;28;20289;-60
2023/06/21 09:09:59;;;;;;;5.10;4.03;;;28.20;99.90;;;;;;5036519;28;20658;-61
2023/06/21 09:12:29;;;;;;;5.40;4.35;;;27.60;99.90;;;;;;5032376;28;20209;-61
2023/06/21 09:14:57;;;;;;;6.25;4.57;;;27.30;99.90;;;;;;5035204;28;20678;-61
2023/06/21 09:17:25;;;;;;;6.60;4.15;;;25.80;99.90;;;;;;5037416;28;20200;-61
2023/06/21 09:19:52;;;;;;;5.40;4.90;;;25.90;99.90;;;;;;5040159;28;20741;-62
2023/06/21 09:22:24;;;;;;;5.80;5.03;;;25.90;99.90;;;;;;5039574;28;20219;-62
2023/06/21 09:24:51;;;;;;;6.73;4.70;;;25.50;99.90;;;;;;5037233;28;20639;-62
2023/06/21 09:27:19;;;;;;;4.80;4.38;;;25.20;99.90;;;;;;5036275;28;20262;-61
2023/06/21 09:29:46;;;;;;;4.57;4.07;;;24.90;99.90;;;;;;5033615;28;20279;-60
2023/06/21 09:32:13;;;;;;;4.87;3.87;;;25.20;99.90;;;;;;5036519;28;20211;-60
2023/06/21 09:34:40;;;;;;;3.13;2.83;;;25.50;99.90;;;;;;5036491;28;20210;-61
2023/06/21 09:37:06;;;;;;;5.93;3.38;;;25.50;99.90;;;;;;5022670;28;20199;-60
2023/06/21 09:39:33;;;;;;;3.45;3.15;;;25.90;99.90;;;;;;5033892;28;20227;-61
2023/06/21 09:42:01;;;;;;;3.63;3.17;;;25.80;99.90;;;;;;5012331;28;20660;-61
2023/06/21 09:44:35;;;;;;;4.47;3.47;;;26.20;99.90;;;;;;5035710;28;20211;-61
2023/06/21 09:47:02;;;;;;;5.47;2.85;;;26.40;99.90;;;;;;5032701;28;20196;-61
2023/06/21 09:49:29;;;;;;;3.13;2.75;;;26.80;99.90;;;;;;5031081;28;20314;-61
2023/06/21 09:51:56;;;;;;;5.57;2.70;;;26.90;99.90;;;;;;5017703;28;20255;-61
2023/06/21 09:54:23;;;;;;;3.60;2.30;;;26.70;99.90;;;;;;5034075;28;20648;-61
2023/06/21 09:56:50;;;;;;;5.65;3.05;;;26.70;99.90;;;;;;5033104;28;20657;-61
2023/06/21 09:59:19;;;;;;;3.55;2.40;;;26.90;99.90;;;;;;5011843;28;20204;-60
2023/06/21 10:01:50;;;;;;;3.88;2.80;;;26.30;99.90;;;;;;5035295;28;20200;-60
2023/06/21 10:04:17;;;;;;;3.13;2.40;;;26.10;99.90;;;;;;5041763;28;20709;-61
2023/06/21 10:06:54;;;;;;;2.65;2.38;;;25.60;99.90;;;;;;5022387;28;20204;-60
2023/06/21 10:09:21;;;;;;;2.80;2.50;;;26.20;99.90;;;;;;5037621;28;20211;-61
2023/06/21 10:11:49;;;;;;;3.97;3.28;;;26.40;99.90;;;;;;5030350;28;20208;-60
2023/06/21 10:14:25;;;;;;;5.65;3.10;;;25.70;99.90;;;;;;5038949;28;20203;-60
2023/06/21 10:16:55;;;;;;;4.23;3.83;;;25.60;99.90;;;;;;5014448;28;20206;-60
2023/06/21 10:19:24;;;;;;;3.97;3.57;;;25.50;99.90;;;;;;5041721;28;20235;-60
2023/06/21 10:22:09;;;;;;;4.67;3.50;;;26.30;99.90;;;;;;5040562;28;20212;-60
2023/06/21 10:24:49;;;;;;;3.20;2.40;;;25.60;99.90;;;;;;5034027;28;20742;-60
2023/06/21 10:27:19;;;;;;;4.10;2.53;;;25.90;99.90;;;;;;5036444;28;20207;-60
2023/06/21 10:29:53;;;;;;;2.45;1.85;;;26.10;99.90;;;;;;5035594;28;20228;-60
2023/06/21 10:32:21;;;;;;;1.52;1.42;;;25.80;99.90;;;;;;5040318;28;20260;-60
2023/06/21 10:35:04;;;;;;;2.25;1.55;;;26.00;99.90;;;;;;5037665;28;20204;-60
2023/06/21 10:38:02;;;;;;;2.15;1.73;;;26.40;99.90;;;;;;5038891;28;20205;-60
2023/06/21 10:40:31;;;;;;;2.00;1.40;;;26.00;99.90;;;;;;5035945;28;20200;-62
2023/06/21 10:42:59;;;;;;;2.30;1.40;;;26.40;99.90;;;;;;5035787;28;20214;-60
2023/06/21 10:45:28;;;;;;;1.98;1.77;;;26.30;99.90;;;;;;5037229;28;20241;-60
2023/06/21 10:47:56;;;;;;;2.40;1.40;;;26.00;99.90;;;;;;5036385;28;20710;-60
2023/06/21 10:50:24;;;;;;;1.73;1.63;;;26.00;99.90;;;;;;5040350;28;20743;-60
2023/06/21 10:52:54;;;;;;;1.80;1.52;;;26.50;99.90;;;;;;5036376;28;21991;-60
2023/06/21 10:55:24;;;;;;;1.45;1.35;;;27.10;99.90;;;;;;5038976;28;20407;-60
2023/06/21 10:57:55;;;;;;;1.50;1.40;;;26.60;99.90;;;;;;5028354;28;20204;-60
2023/06/21 11:00:24;;;;;;;2.17;1.63;;;26.40;99.90;;;;;;5039142;28;20990;-61
2023/06/21 11:02:52;;;;;;;1.58;1.38;;;26.50;99.90;;;;;;5036992;28;20216;-60
2023/06/21 11:05:23;;;;;;;2.17;1.90;;;26.90;99.90;;;;;;5037266;28;20200;-60
2023/06/21 11:07:58;;;;;;;3.25;2.20;;;26.70;99.90;;;;;;5030765;28;20256;-60
2023/06/21 11:10:46;;;;;;;1.85;1.58;;;26.20;99.90;;;;;;5021642;28;20298;-60
2023/06/21 11:13:14;;;;;;;2.72;2.20;;;27.70;99.90;;;;;;5034677;28;20219;-62
2023/06/21 11:15:42;;;;;;;2.10;1.42;;;26.90;99.90;;;;;;5034917;28;20215;-62
2023/06/21 11:18:10;;;;;;;2.70;1.98;;;26.90;99.90;;;;;;5037733;28;20267;-60
2023/06/21 11:20:48;;;;;;;2.70;1.38;;;26.60;99.90;;;;;;5035893;28;20201;-60
2023/06/21 11:23:22;;;;;;;3.85;1.60;;;25.80;99.90;;;;;;5035853;28;20236;-60
2023/06/21 11:25:53;;;;;;;1.70;1.33;;;27.00;99.90;;;;;;5035942;28;20208;-60
2023/06/21 11:28:25;;;;;;;2.28;1.77;;;27.10;99.90;;;;;;5019970;28;20293;-61
2023/06/21 11:31:01;;;;;;;1.90;1.27;;;27.50;99.90;;;;;;5017372;28;20219;-60
2023/06/21 11:33:30;;;;;;;3.22;1.80;;;27.70;99.90;;;;;;5030749;28;20203;-60
2023/06/21 11:36:07;;;;;;;1.90;1.42;;;27.10;99.90;;;;;;5032070;28;20564;-62
2023/06/21 11:38:35;;;;;;;5.65;1.50;;;27.10;99.90;;;;;;5036446;28;20191;-60
2023/06/21 11:41:40;;;;;;;2.63;1.60;;;28.10;99.90;;;;;;5037780;28;20230;-60
2023/06/21 11:44:28;;;;;;;2.40;1.65;;;28.60;99.90;;;;;;5039286;28;20196;-61
2023/06/21 11:47:21;;;;;;;1.77;1.55;;;28.80;99.90;;;;;;5033461;28;20211;-61
2023/06/21 11:49:57;;;;;;;2.55;1.70;;;28.90;99.90;;;;;;5032425;28;20223;-60
2023/06/21 11:52:31;;;;;;;1.60;1.50;;;28.90;99.90;;;;;;5034467;28;20728;-61
2023/06/21 11:55:10;;;;;;;3.22;1.55;;;29.10;99.90;;;;;;5021978;28;20220;-60
2023/06/21 11:57:44;;;;;;;3.63;1.52;;;30.10;99.90;;;;;;5038045;28;20207;-60
2023/06/21 12:00:12;;;;;;;1.98;1.33;;;29.60;99.90;;;;;;5040306;28;20200;-62
2023/06/21 12:02:39;;;;;;;2.22;1.70;;;28.40;99.90;;;;;;5034693;28;20211;-62
2023/06/21 12:05:06;;;;;;;2.05;1.85;;;27.60;99.90;;;;;;5028486;28;20212;-61
2023/06/21 12:07:34;;;;;;;2.47;1.85;;;26.70;99.90;;;;;;5014641;28;20813;-62
2023/06/21 12:10:01;;;;;;;2.67;1.80;;;26.90;99.90;;;;;;5030057;28;20228;-60
2023/06/21 12:12:28;;;;;;;1.40;1.30;;;26.40;99.90;;;;;;5036535;28;20837;-62
2023/06/21 12:14:58;;;;;;;2.57;1.77;;;26.50;99.90;;;;;;5025793;28;20211;-60
2023/06/21 12:17:25;;;;;;;2.97;1.80;;;27.60;99.90;;;;;;5028480;28;20196;-61
2023/06/21 12:19:52;;;;;;;3.43;2.00;;;28.60;99.90;;;;;;5034624;28;20223;-61
2023/06/21 12:22:22;;;;;;;2.47;1.77;;;28.20;99.90;;;;;;5016344;28;20516;-62
2023/06/21 12:24:52;;;;;;;2.95;1.70;;;28.10;99.90;;;;;;5037603;28;20229;-62
2023/06/21 12:27:20;;;;;;;3.08;1.63;;;28.50;99.90;;;;;;5037621;28;20230;-62
2023/06/21 12:29:51;;;;;;;2.67;1.45;;;28.00;99.90;;;;;;5040724;28;20219;-62
2023/06/21 12:32:20;;;;;;;1.73;1.57;;;28.00;99.90;;;;;;5041508;28;20567;-60
2023/06/21 12:34:48;;;;;;;9.17;1.97;;;27.80;99.90;;;;;;5035690;28;20196;-61
2023/06/21 12:37:19;;;;;;;3.10;1.87;;;28.40;99.90;;;;;;5021223;28;20226;-62
2023/06/21 12:39:52;;;;;;;3.27;2.77;;;27.70;99.90;;;;;;5040450;28;20214;-61
2023/06/21 12:42:20;;;;;;;4.27;1.83;;;27.20;99.90;;;;;;5037260;28;20205;-61
2023/06/21 12:44:48;;;;;;;3.97;2.00;;;27.30;99.90;;;;;;5038130;28;20311;-61
2023/06/21 12:47:15;;;;;;;3.10;1.93;;;26.90;99.90;;;;;;5039090;28;20312;-61